Time,TemperatureF,DewpointF,PressureIn,WindDirection,WindDirectionDegrees,WindSpeedMPH,WindSpeedGustMPH,Humidity,HourlyPrecipIn,Conditions,Clouds,dailyrainin,SolarRadiationWatts/m^2,SoftwareType,DateUTC
2013-02-19 00:00:00,29.4,19.8,29.92,ESE,111,2.0,3.0,67,0.00,,,0.00,0,WxPro DR1,2013-02-19 05:00:00,
2013-02-19 00:01:00,29.5,19.9,29.93,ESE,112,0.0,3.0,67,0.00,,,0.00,0,WxPro DR1,2013-02-19 05:01:00,
2013-02-19 00:06:00,29.7,20.1,29.93,ESE,113,0.0,3.0,67,0.00,,,0.00,0,WxPro DR1,2013-02-19 05:06:00,
2013-02-19 00:11:00,29.8,20.6,29.93,ESE,111,0.0,3.0,68,0.00,,,0.00,0,WxPro DR1,2013-02-19 05:11:00,
2013-02-19 00:16:00,30.0,20.4,29.93,ESE,113,2.0,3.0,67,0.00,,,0.00,0,WxPro DR1,2013-02-19 05:16:00,
2013-02-19 00:21:00,30.3,20.7,29.92,ESE,105,1.0,4.0,67,0.00,,,0.00,0,WxPro DR1,2013-02-19 05:21:00,
2013-02-19 00:26:00,30.6,20.6,29.92,ESE,106,1.0,4.0,66,0.00,,,0.00,0,WxPro DR1,2013-02-19 05:26:00,
2013-02-19 00:31:00,30.7,21.1,29.91,ESE,107,0.0,3.0,67,0.00,,,0.00,0,WxPro DR1,2013-02-19 05:31:00,
2013-02-19 00:36:00,30.8,21.1,29.91,ESE,109,0.0,3.0,67,0.00,,,0.00,0,WxPro DR1,2013-02-19 05:36:00,
2013-02-19 00:41:00,30.9,21.6,29.91,ESE,109,1.0,3.0,68,0.00,,,0.00,0,WxPro DR1,2013-02-19 05:41:00,
2013-02-19 00:46:00,31.1,21.8,29.91,ESE,111,2.0,2.0,68,0.00,,,0.00,0,WxPro DR1,2013-02-19 05:46:00,
2013-02-19 00:51:00,31.3,21.9,29.91,ESE,111,2.0,3.0,68,0.00,,,0.00,0,WxPro DR1,2013-02-19 05:51:00,
2013-02-19 00:56:00,31.6,22.0,29.90,ESE,122,2.0,5.0,67,0.00,,,0.00,0,WxPro DR1,2013-02-19 05:56:00,
2013-02-19 01:01:00,31.9,22.5,29.90,SE,128,2.0,5.0,68,0.00,,,0.00,0,WxPro DR1,2013-02-19 06:01:00,
2013-02-19 01:06:00,32.1,22.4,29.89,ESE,118,3.0,6.0,67,0.00,,,0.00,0,WxPro DR1,2013-02-19 06:06:00,
2013-02-19 01:11:00,32.4,22.9,29.89,SE,125,2.0,6.0,68,0.00,,,0.00,0,WxPro DR1,2013-02-19 06:11:00,
2013-02-19 01:16:00,32.5,22.8,29.89,SE,124,2.0,5.0,67,0.00,,,0.00,0,WxPro DR1,2013-02-19 06:16:00,
2013-02-19 01:21:00,32.6,22.9,29.88,SE,126,1.0,5.0,67,0.00,,,0.00,0,WxPro DR1,2013-02-19 06:21:00,
2013-02-19 01:26:00,32.9,23.1,29.88,SE,128,1.0,5.0,67,0.00,,,0.00,0,WxPro DR1,2013-02-19 06:26:00,
2013-02-19 01:31:00,33.0,23.2,29.88,ESE,117,2.0,5.0,67,0.00,,,0.00,0,WxPro DR1,2013-02-19 06:31:00,
2013-02-19 01:36:00,33.1,23.6,29.88,ESE,112,3.0,5.0,68,0.00,,,0.00,0,WxPro DR1,2013-02-19 06:36:00,
2013-02-19 01:41:00,33.0,23.5,29.87,ESE,117,2.0,4.0,68,0.00,,,0.00,0,WxPro DR1,2013-02-19 06:41:00,
2013-02-19 01:46:00,33.0,23.6,29.87,ESE,118,1.0,5.0,68,0.00,,,0.00,0,WxPro DR1,2013-02-19 06:46:00,
2013-02-19 01:51:00,32.9,23.9,29.87,ESE,119,0.0,5.0,69,0.00,,,0.00,0,WxPro DR1,2013-02-19 06:51:00,
2013-02-19 01:56:00,32.9,23.9,29.86,ESE,119,2.0,3.0,69,0.00,,,0.00,0,WxPro DR1,2013-02-19 06:56:00,
2013-02-19 02:01:00,33.1,24.0,29.86,ESE,119,0.0,3.0,69,0.00,,,0.00,0,WxPro DR1,2013-02-19 07:01:00,
2013-02-19 02:06:00,33.1,24.1,29.86,ESE,118,0.0,3.0,69,0.00,,,0.00,0,WxPro DR1,2013-02-19 07:06:00,
2013-02-19 02:11:00,33.2,24.1,29.86,ESE,113,0.0,4.0,69,0.00,,,0.00,0,WxPro DR1,2013-02-19 07:11:00,
2013-02-19 02:16:00,33.2,24.1,29.86,ESE,112,1.0,4.0,69,0.00,,,0.00,0,WxPro DR1,2013-02-19 07:16:00,
2013-02-19 02:21:00,33.2,24.1,29.86,ESE,113,1.0,3.0,69,0.00,,,0.00,0,WxPro DR1,2013-02-19 07:21:00,
2013-02-19 02:26:00,33.3,24.6,29.86,ESE,113,0.0,3.0,70,0.00,,,0.00,0,WxPro DR1,2013-02-19 07:26:00,
2013-02-19 02:31:00,33.6,24.9,29.85,ESE,111,0.0,3.0,70,0.00,,,0.00,0,WxPro DR1,2013-02-19 07:31:00,
2013-02-19 02:36:00,33.8,25.1,29.85,ESE,110,0.0,2.0,70,0.00,,,0.00,0,WxPro DR1,2013-02-19 07:36:00,
2013-02-19 02:41:00,34.0,25.5,29.84,ESE,115,0.0,4.0,71,0.00,,,0.00,0,WxPro DR1,2013-02-19 07:41:00,
2013-02-19 02:46:00,34.6,26.2,29.84,SE,128,0.0,5.0,71,0.00,,,0.00,0,WxPro DR1,2013-02-19 07:46:00,
2013-02-19 02:51:00,35.7,26.7,29.84,SE,130,2.0,5.0,69,0.00,,,0.00,0,WxPro DR1,2013-02-19 07:51:00,
2013-02-19 02:56:00,36.5,27.7,29.83,SE,136,1.0,5.0,70,0.00,,,0.00,0,WxPro DR1,2013-02-19 07:56:00,
2013-02-19 03:01:00,37.2,26.9,29.83,SE,130,3.0,6.0,66,0.00,,,0.00,0,WxPro DR1,2013-02-19 08:01:00,
2013-02-19 03:06:00,37.7,27.4,29.82,SE,132,0.0,6.0,66,0.00,,,0.00,0,WxPro DR1,2013-02-19 08:06:00,
2013-02-19 03:11:00,37.7,27.0,29.82,SSE,161,0.0,5.0,65,0.00,,,0.00,0,WxPro DR1,2013-02-19 08:11:00,
2013-02-19 03:16:00,37.7,27.0,29.82,SSE,163,0.0,5.0,65,0.00,,,0.00,0,WxPro DR1,2013-02-19 08:16:00,
2013-02-19 03:21:00,37.7,27.0,29.81,SE,132,2.0,5.0,65,0.00,,,0.00,0,WxPro DR1,2013-02-19 08:21:00,
2013-02-19 03:26:00,37.7,27.0,29.81,SE,140,1.0,5.0,65,0.00,,,0.00,0,WxPro DR1,2013-02-19 08:26:00,
2013-02-19 03:31:00,37.8,26.7,29.81,SE,129,1.0,4.0,64,0.00,,,0.00,0,WxPro DR1,2013-02-19 08:31:00,
2013-02-19 03:36:00,37.8,26.7,29.81,SE,128,0.0,4.0,64,0.00,,,0.00,0,WxPro DR1,2013-02-19 08:36:00,
2013-02-19 03:41:00,37.8,26.8,29.80,SSE,156,3.0,5.0,64,0.00,,,0.00,0,WxPro DR1,2013-02-19 08:41:00,
2013-02-19 03:46:00,38.0,26.9,29.80,SE,140,2.0,5.0,64,0.00,,,0.00,0,WxPro DR1,2013-02-19 08:46:00,
2013-02-19 03:51:00,38.0,26.9,29.80,SE,133,1.0,6.0,64,0.00,,,0.00,0,WxPro DR1,2013-02-19 08:51:00,
2013-02-19 03:56:00,37.9,26.9,29.79,SE,128,2.0,6.0,64,0.00,,,0.00,0,WxPro DR1,2013-02-19 08:56:00,
2013-02-19 04:01:00,38.0,26.8,29.79,SE,130,0.0,4.0,64,0.00,,,0.00,0,WxPro DR1,2013-02-19 09:01:00,
2013-02-19 04:06:00,38.0,26.9,29.79,SE,130,2.0,4.0,64,0.00,,,0.00,0,WxPro DR1,2013-02-19 09:06:00,
2013-02-19 04:11:00,37.8,26.8,29.79,SE,132,0.0,3.0,64,0.00,,,0.00,0,WxPro DR1,2013-02-19 09:11:00,
2013-02-19 04:16:00,37.7,26.7,29.78,SE,131,1.0,3.0,64,0.00,,,0.00,0,WxPro DR1,2013-02-19 09:16:00,
2013-02-19 04:21:00,37.6,26.5,29.78,SE,132,1.0,3.0,64,0.00,,,0.00,0,WxPro DR1,2013-02-19 09:21:00,
2013-02-19 04:26:00,37.5,26.5,29.77,SE,133,2.0,4.0,64,0.00,,,0.00,0,WxPro DR1,2013-02-19 09:26:00,
2013-02-19 04:31:00,37.7,26.6,29.77,SE,142,1.0,4.0,64,0.00,,,0.00,0,WxPro DR1,2013-02-19 09:31:00,
2013-02-19 04:36:00,37.7,26.3,29.77,SSE,157,2.0,4.0,63,0.00,,,0.00,0,WxPro DR1,2013-02-19 09:36:00,
2013-02-19 04:41:00,37.8,26.5,29.77,SE,140,1.0,4.0,64,0.00,,,0.00,0,WxPro DR1,2013-02-19 09:41:00,
2013-02-19 04:46:00,37.5,26.1,29.76,SE,144,2.0,6.0,63,0.00,,,0.00,0,WxPro DR1,2013-02-19 09:46:00,
2013-02-19 04:51:00,37.4,25.9,29.76,SE,145,4.0,6.0,63,0.00,,,0.00,0,WxPro DR1,2013-02-19 09:51:00,
2013-02-19 04:56:00,37.3,25.9,29.76,SSE,147,2.0,4.0,63,0.00,,,0.00,0,WxPro DR1,2013-02-19 09:56:00,
2013-02-19 05:01:00,37.4,25.6,29.76,SSE,148,2.0,4.0,62,0.00,,,0.00,0,WxPro DR1,2013-02-19 10:01:00,
2013-02-19 05:06:00,37.6,26.0,29.75,SSE,148,2.0,4.0,63,0.00,,,0.00,0,WxPro DR1,2013-02-19 10:06:00,
2013-02-19 05:11:00,37.5,26.1,29.75,SE,145,1.0,3.0,63,0.00,,,0.00,0,WxPro DR1,2013-02-19 10:11:00,
2013-02-19 05:16:00,37.1,26.4,29.75,SE,145,1.0,3.0,65,0.00,,,0.00,0,WxPro DR1,2013-02-19 10:16:00,
2013-02-19 05:21:00,36.7,26.1,29.75,SE,144,1.0,3.0,65,0.00,,,0.00,0,WxPro DR1,2013-02-19 10:21:00,
2013-02-19 05:26:00,36.6,26.0,29.74,SE,144,0.0,3.0,65,0.00,,,0.00,0,WxPro DR1,2013-02-19 10:26:00,
2013-02-19 05:31:00,36.6,26.0,29.74,SE,141,2.0,3.0,65,0.00,,,0.00,0,WxPro DR1,2013-02-19 10:31:00,
2013-02-19 05:36:00,36.7,26.0,29.74,SE,142,0.0,3.0,65,0.00,,,0.00,0,WxPro DR1,2013-02-19 10:36:00,
2013-02-19 05:41:00,36.8,25.8,29.74,SE,142,1.0,3.0,64,0.00,,,0.00,0,WxPro DR1,2013-02-19 10:41:00,
2013-02-19 05:46:00,37.0,26.2,29.73,SE,142,0.0,2.0,64,0.00,,,0.00,0,WxPro DR1,2013-02-19 10:46:00,
2013-02-19 05:51:00,37.2,25.8,29.73,SE,145,1.0,3.0,63,0.00,,,0.00,0,WxPro DR1,2013-02-19 10:51:00,
2013-02-19 05:56:00,37.7,26.1,29.73,SSE,159,1.0,4.0,63,0.00,,,0.00,0,WxPro DR1,2013-02-19 10:56:00,
2013-02-19 06:01:00,38.0,26.1,29.72,SSE,148,4.0,5.0,62,0.00,,,0.00,0,WxPro DR1,2013-02-19 11:01:00,
2013-02-19 06:06:00,38.3,26.4,29.72,SSE,151,3.0,5.0,62,0.00,,,0.00,0,WxPro DR1,2013-02-19 11:06:00,
2013-02-19 06:11:00,38.9,26.2,29.71,South,171,3.0,7.0,60,0.00,,,0.00,0,WxPro DR1,2013-02-19 11:11:00,
2013-02-19 06:16:00,39.3,26.5,29.70,SSE,148,1.0,7.0,60,0.00,,,0.00,0,WxPro DR1,2013-02-19 11:16:00,
2013-02-19 06:21:00,39.3,26.6,29.70,SSE,157,2.0,7.0,60,0.00,,,0.00,0,WxPro DR1,2013-02-19 11:21:00,
2013-02-19 06:26:00,39.2,26.9,29.69,SSE,149,0.0,5.0,61,0.00,,,0.00,0,WxPro DR1,2013-02-19 11:26:00,
2013-02-19 06:31:00,39.0,26.6,29.69,SSE,158,1.0,5.0,61,0.00,,,0.00,0,WxPro DR1,2013-02-19 11:31:00,
2013-02-19 06:36:00,39.1,26.4,29.69,SSE,153,4.0,6.0,60,0.00,,,0.00,0,WxPro DR1,2013-02-19 11:36:00,
2013-02-19 06:41:00,39.4,26.6,29.68,SSE,148,3.0,6.0,60,0.00,,,0.00,0,WxPro DR1,2013-02-19 11:41:00,
2013-02-19 06:46:00,39.6,26.9,29.69,SSE,155,2.0,5.0,60,0.00,,,0.00,0,WxPro DR1,2013-02-19 11:46:00,
2013-02-19 06:51:00,39.7,26.9,29.69,SE,144,2.0,5.0,60,0.00,,,0.00,0,WxPro DR1,2013-02-19 11:51:00,
2013-02-19 06:56:00,39.6,27.3,29.69,SSE,155,1.0,4.0,61,0.00,,,0.00,0,WxPro DR1,2013-02-19 11:56:00,
2013-02-19 07:01:00,39.5,27.1,29.68,SSE,167,3.0,5.0,61,0.00,,,0.00,7,WxPro DR1,2013-02-19 12:01:00,
2013-02-19 07:06:00,39.6,26.9,29.68,SSE,163,2.0,6.0,60,0.00,,,0.00,0,WxPro DR1,2013-02-19 12:06:00,
2013-02-19 07:11:00,40.0,26.8,29.68,SSE,155,4.0,9.0,59,0.00,,,0.00,0,WxPro DR1,2013-02-19 12:11:00,
2013-02-19 07:16:00,40.4,26.8,29.68,SSE,151,1.0,9.0,58,0.00,,,0.00,0,WxPro DR1,2013-02-19 12:16:00,
2013-02-19 07:21:00,40.6,27.0,29.68,SSE,163,2.0,8.0,58,0.00,,,0.00,5,WxPro DR1,2013-02-19 12:21:00,
2013-02-19 07:26:00,40.7,27.1,29.68,SSE,153,5.0,9.0,58,0.00,,,0.00,5,WxPro DR1,2013-02-19 12:26:00,
2013-02-19 07:31:00,40.7,26.9,29.67,SSE,161,1.0,9.0,58,0.00,,,0.00,9,WxPro DR1,2013-02-19 12:31:00,
2013-02-19 07:36:00,40.6,27.0,29.67,SSE,162,2.0,9.0,58,0.00,,,0.00,12,WxPro DR1,2013-02-19 12:36:00,
2013-02-19 07:41:00,40.6,27.0,29.67,SE,144,3.0,8.0,58,0.00,,,0.00,14,WxPro DR1,2013-02-19 12:41:00,
2013-02-19 07:46:00,40.4,27.3,29.67,SSE,147,3.0,6.0,59,0.00,,,0.00,14,WxPro DR1,2013-02-19 12:46:00,
2013-02-19 07:51:00,40.2,27.1,29.67,SSE,161,3.0,7.0,59,0.00,,,0.00,12,WxPro DR1,2013-02-19 12:51:00,
2013-02-19 07:56:00,40.2,27.0,29.67,South,180,3.0,7.0,59,0.00,,,0.00,12,WxPro DR1,2013-02-19 12:56:00,
2013-02-19 08:01:00,40.4,27.2,29.67,SSE,167,9.0,9.0,59,0.00,,,0.00,12,WxPro DR1,2013-02-19 13:01:00,
2013-02-19 08:06:00,40.8,27.8,29.67,South,190,5.0,13.0,59,0.00,,,0.00,11,WxPro DR1,2013-02-19 13:06:00,
2013-02-19 08:11:00,41.1,29.5,29.67,South,169,7.0,13.0,63,0.00,,,0.00,11,WxPro DR1,2013-02-19 13:11:00,
2013-02-19 08:16:00,40.7,29.6,29.68,South,175,3.0,13.0,64,0.00,,,0.00,14,WxPro DR1,2013-02-19 13:16:00,
2013-02-19 08:21:00,40.4,30.0,29.68,SSW,212,6.0,14.0,66,0.00,,,0.00,21,WxPro DR1,2013-02-19 13:21:00,
2013-02-19 08:26:00,40.1,30.8,29.68,South,190,5.0,15.0,69,0.00,,,0.00,21,WxPro DR1,2013-02-19 13:26:00,
2013-02-19 08:31:00,40.0,30.6,29.68,SSE,161,7.0,16.0,69,0.00,,,0.00,19,WxPro DR1,2013-02-19 13:31:00,
2013-02-19 08:36:00,39.8,31.2,29.68,South,180,6.0,16.0,71,0.00,,,0.00,18,WxPro DR1,2013-02-19 13:36:00,
2013-02-19 08:41:00,39.4,31.9,29.67,SSE,157,3.0,14.0,74,0.00,,,0.00,16,WxPro DR1,2013-02-19 13:41:00,
2013-02-19 08:46:00,39.0,32.4,29.67,South,173,2.0,11.0,77,0.00,,,0.00,16,WxPro DR1,2013-02-19 13:46:00,
2013-02-19 08:51:00,38.6,32.7,29.67,SW,219,7.0,14.0,79,0.00,,,0.00,19,WxPro DR1,2013-02-19 13:51:00,
2013-02-19 08:56:00,38.4,33.1,29.66,South,171,2.0,14.0,81,0.00,,,0.00,19,WxPro DR1,2013-02-19 13:56:00,
2013-02-19 09:01:00,38.2,33.5,29.66,South,171,3.0,14.0,83,0.00,,,0.00,23,WxPro DR1,2013-02-19 14:01:00,
2013-02-19 09:06:00,38.0,34.0,29.66,SSE,159,1.0,14.0,85,0.00,,,0.00,26,WxPro DR1,2013-02-19 14:06:00,
2013-02-19 09:11:00,38.0,34.2,29.65,South,173,3.0,13.0,86,0.00,,,0.00,28,WxPro DR1,2013-02-19 14:11:00,
2013-02-19 09:16:00,38.0,34.4,29.65,SSE,155,0.0,11.0,87,0.00,,,0.00,30,WxPro DR1,2013-02-19 14:16:00,
2013-02-19 09:21:00,37.8,34.6,29.65,South,169,3.0,7.0,88,0.00,,,0.00,26,WxPro DR1,2013-02-19 14:21:00,
2013-02-19 09:26:00,37.7,34.8,29.65,SSW,196,1.0,9.0,89,0.00,,,0.00,33,WxPro DR1,2013-02-19 14:26:00,
2013-02-19 09:31:00,37.7,35.0,29.64,SSE,163,4.0,9.0,90,0.00,,,0.00,42,WxPro DR1,2013-02-19 14:31:00,
2013-02-19 09:36:00,37.6,34.9,29.64,SSE,153,4.0,11.0,90,0.00,,,0.00,49,WxPro DR1,2013-02-19 14:36:00,
2013-02-19 09:41:00,37.5,35.1,29.63,SSE,149,6.0,11.0,91,0.00,,,0.00,62,WxPro DR1,2013-02-19 14:41:00,
2013-02-19 09:46:00,37.7,35.3,29.62,SE,146,2.0,8.0,91,0.00,,,0.00,93,WxPro DR1,2013-02-19 14:46:00,
2013-02-19 09:51:00,37.7,35.3,29.62,SSE,161,4.0,8.0,91,0.00,,,0.00,86,WxPro DR1,2013-02-19 14:51:00,
2013-02-19 09:56:00,37.9,35.5,29.63,SE,144,4.0,10.0,91,0.00,,,0.00,60,WxPro DR1,2013-02-19 14:56:00,
2013-02-19 10:01:00,37.9,35.5,29.62,SSE,159,4.0,10.0,91,0.00,,,0.00,51,WxPro DR1,2013-02-19 15:01:00,
2013-02-19 10:06:00,38.0,35.6,29.62,SE,144,1.0,10.0,91,0.00,,,0.00,46,WxPro DR1,2013-02-19 15:06:00,
2013-02-19 10:11:00,38.1,35.7,29.63,SSE,157,8.0,11.0,91,0.00,,,0.00,47,WxPro DR1,2013-02-19 15:11:00,
2013-02-19 10:16:00,38.3,35.9,29.62,SSE,153,7.0,12.0,91,0.00,,,0.00,51,WxPro DR1,2013-02-19 15:16:00,
2013-02-19 10:21:00,38.6,36.2,29.62,SSE,164,3.0,14.0,91,0.00,,,0.00,83,WxPro DR1,2013-02-19 15:21:00,
2013-02-19 10:26:00,38.8,36.2,29.61,SSE,168,4.0,14.0,90,0.00,,,0.00,135,WxPro DR1,2013-02-19 15:26:00,
2013-02-19 10:31:00,39.0,36.3,29.61,South,190,6.0,12.0,90,0.00,,,0.00,183,WxPro DR1,2013-02-19 15:31:00,
2013-02-19 10:36:00,39.5,36.7,29.61,SSE,157,4.0,14.0,90,0.00,,,0.00,223,WxPro DR1,2013-02-19 15:36:00,
2013-02-19 10:41:00,40.1,36.8,29.61,SE,135,6.0,14.0,88,0.00,,,0.00,128,WxPro DR1,2013-02-19 15:41:00,
2013-02-19 10:46:00,40.3,36.8,29.61,South,171,9.0,10.0,87,0.00,,,0.00,113,WxPro DR1,2013-02-19 15:46:00,
2013-02-19 10:51:00,40.4,36.8,29.61,SE,145,5.0,11.0,87,0.00,,,0.00,98,WxPro DR1,2013-02-19 15:51:00,
2013-02-19 10:56:00,40.3,36.8,29.61,South,169,4.0,11.0,87,0.00,,,0.00,111,WxPro DR1,2013-02-19 15:56:00,
2013-02-19 11:01:00,40.4,36.6,29.60,SSE,153,3.0,10.0,86,0.00,,,0.00,91,WxPro DR1,2013-02-19 16:01:00,
2013-02-19 11:06:00,40.4,36.5,29.60,SSE,155,5.0,11.0,86,0.00,,,0.00,107,WxPro DR1,2013-02-19 16:06:00,
2013-02-19 11:11:00,40.4,36.5,29.60,SE,141,6.0,11.0,86,0.00,,,0.00,107,WxPro DR1,2013-02-19 16:11:00,
2013-02-19 11:16:00,40.5,36.3,29.60,SSE,163,2.0,10.0,85,0.00,,,0.00,130,WxPro DR1,2013-02-19 16:16:00,
2013-02-19 11:21:00,40.7,36.6,29.59,South,187,6.0,15.0,85,0.01,,,0.01,114,WxPro DR1,2013-02-19 16:21:00,
2013-02-19 11:26:00,40.9,36.4,29.59,South,173,5.0,15.0,84,0.01,,,0.01,127,WxPro DR1,2013-02-19 16:26:00,
2013-02-19 11:31:00,40.9,36.5,29.59,SSE,148,3.0,11.0,84,0.01,,,0.01,185,WxPro DR1,2013-02-19 16:31:00,
2013-02-19 11:36:00,41.1,36.6,29.59,SSW,209,7.0,13.0,84,0.01,,,0.01,160,WxPro DR1,2013-02-19 16:36:00,
2013-02-19 11:41:00,41.3,36.6,29.58,South,190,5.0,13.0,83,0.01,,,0.01,135,WxPro DR1,2013-02-19 16:41:00,
2013-02-19 11:46:00,41.5,36.7,29.58,SSE,167,3.0,14.0,83,0.01,,,0.01,158,WxPro DR1,2013-02-19 16:46:00,
2013-02-19 11:51:00,41.6,36.5,29.58,South,186,7.0,14.0,82,0.01,,,0.01,84,WxPro DR1,2013-02-19 16:51:00,
2013-02-19 11:56:00,41.8,36.7,29.58,South,171,7.0,13.0,82,0.01,,,0.01,93,WxPro DR1,2013-02-19 16:56:00,
2013-02-19 12:01:00,41.9,36.5,29.57,South,185,7.0,13.0,81,0.01,,,0.01,97,WxPro DR1,2013-02-19 17:01:00,
2013-02-19 12:06:00,42.0,36.6,29.57,South,174,5.0,18.0,81,0.01,,,0.01,125,WxPro DR1,2013-02-19 17:06:00,
2013-02-19 12:11:00,42.1,36.7,29.57,SSE,165,4.0,18.0,81,0.01,,,0.01,121,WxPro DR1,2013-02-19 17:11:00,
2013-02-19 12:16:00,42.2,36.8,29.56,South,169,4.0,15.0,81,0.01,,,0.01,125,WxPro DR1,2013-02-19 17:16:00,
2013-02-19 12:21:00,42.3,36.6,29.56,South,175,5.0,16.0,80,0.00,,,0.01,171,WxPro DR1,2013-02-19 17:21:00,
2013-02-19 12:26:00,42.4,36.6,29.56,South,171,7.0,16.0,80,0.00,,,0.01,128,WxPro DR1,2013-02-19 17:26:00,
2013-02-19 12:31:00,42.5,36.8,29.55,SSE,167,11.0,14.0,80,0.00,,,0.01,172,WxPro DR1,2013-02-19 17:31:00,
2013-02-19 12:36:00,42.6,36.7,29.55,SSW,195,4.0,14.0,79,0.00,,,0.01,155,WxPro DR1,2013-02-19 17:36:00,
2013-02-19 12:41:00,42.7,36.6,29.55,South,173,3.0,14.0,79,0.00,,,0.01,167,WxPro DR1,2013-02-19 17:41:00,
2013-02-19 12:46:00,42.8,36.8,29.54,South,182,6.0,17.0,79,0.00,,,0.01,411,WxPro DR1,2013-02-19 17:46:00,
2013-02-19 12:51:00,43.5,37.4,29.54,South,186,4.0,17.0,79,0.00,,,0.01,870,WxPro DR1,2013-02-19 17:51:00,
2013-02-19 12:56:00,44.4,37.7,29.54,SW,215,6.0,14.0,77,0.00,,,0.01,239,WxPro DR1,2013-02-19 17:56:00,
2013-02-19 13:01:00,44.6,37.5,29.53,South,187,8.0,14.0,76,0.00,,,0.01,473,WxPro DR1,2013-02-19 18:01:00,
2013-02-19 13:06:00,44.9,37.8,29.53,SE,127,6.0,14.0,76,0.00,,,0.01,323,WxPro DR1,2013-02-19 18:06:00,
2013-02-19 13:11:00,45.5,38.0,29.53,South,170,10.0,21.0,75,0.00,,,0.01,250,WxPro DR1,2013-02-19 18:11:00,
2013-02-19 13:16:00,45.6,38.2,29.53,SW,225,11.0,21.0,75,0.00,,,0.01,248,WxPro DR1,2013-02-19 18:16:00,
2013-02-19 13:21:00,45.5,38.0,29.53,SSE,165,2.0,17.0,75,0.00,,,0.01,181,WxPro DR1,2013-02-19 18:21:00,
2013-02-19 13:26:00,45.4,38.0,29.53,South,176,6.0,19.0,75,0.00,,,0.01,107,WxPro DR1,2013-02-19 18:26:00,
2013-02-19 13:31:00,45.1,38.0,29.53,South,189,6.0,19.0,76,0.00,,,0.01,91,WxPro DR1,2013-02-19 18:31:00,
2013-02-19 13:36:00,44.9,37.8,29.53,South,169,4.0,15.0,76,0.00,,,0.01,69,WxPro DR1,2013-02-19 18:36:00,
2013-02-19 13:41:00,44.6,37.8,29.54,SSW,205,1.0,13.0,77,0.00,,,0.01,39,WxPro DR1,2013-02-19 18:41:00,
2013-02-19 13:46:00,44.1,37.7,29.55,West,271,11.0,13.0,78,0.00,,,0.01,33,WxPro DR1,2013-02-19 18:46:00,
2013-02-19 13:51:00,42.5,37.3,29.55,WSW,245,3.0,16.0,81,0.00,,,0.01,51,WxPro DR1,2013-02-19 18:51:00,
2013-02-19 13:56:00,40.0,36.2,29.56,West,280,9.0,17.0,86,0.00,,,0.01,79,WxPro DR1,2013-02-19 18:56:00,
2013-02-19 14:01:00,38.7,35.4,29.56,WSW,246,6.0,17.0,88,0.00,,,0.01,58,WxPro DR1,2013-02-19 19:01:00,
2013-02-19 14:06:00,38.0,35.1,29.56,WNW,286,8.0,15.0,89,0.00,,,0.01,49,WxPro DR1,2013-02-19 19:06:00,
2013-02-19 14:11:00,37.6,34.9,29.56,WSW,257,10.0,15.0,90,0.00,,,0.01,49,WxPro DR1,2013-02-19 19:11:00,
2013-02-19 14:16:00,37.3,35.0,29.56,WNW,284,3.0,14.0,91,0.00,,,0.01,39,WxPro DR1,2013-02-19 19:16:00,
2013-02-19 14:21:00,37.2,34.8,29.57,West,280,7.0,11.0,91,0.00,,,0.01,35,WxPro DR1,2013-02-19 19:21:00,
2013-02-19 14:26:00,37.1,34.7,29.57,WSW,253,1.0,11.0,91,0.00,,,0.01,46,WxPro DR1,2013-02-19 19:26:00,
2013-02-19 14:31:00,37.0,34.6,29.57,West,273,3.0,11.0,91,0.00,,,0.01,33,WxPro DR1,2013-02-19 19:31:00,
2013-02-19 14:36:00,36.9,34.5,29.57,WNW,283,5.0,13.0,91,0.00,,,0.01,32,WxPro DR1,2013-02-19 19:36:00,
2013-02-19 14:41:00,36.8,34.4,29.57,WNW,286,3.0,13.0,91,0.00,,,0.01,37,WxPro DR1,2013-02-19 19:41:00,
2013-02-19 14:46:00,36.6,34.0,29.57,West,259,2.0,17.0,90,0.00,,,0.01,33,WxPro DR1,2013-02-19 19:46:00,
2013-02-19 14:51:00,36.4,33.5,29.57,SW,221,3.0,17.0,89,0.00,,,0.01,65,WxPro DR1,2013-02-19 19:51:00,
2013-02-19 14:56:00,36.2,32.8,29.57,WNW,284,5.0,18.0,87,0.00,,,0.01,72,WxPro DR1,2013-02-19 19:56:00,
2013-02-19 15:01:00,36.1,32.3,29.58,West,275,3.0,19.0,86,0.00,,,0.01,35,WxPro DR1,2013-02-19 20:01:00,
2013-02-19 15:06:00,36.0,32.3,29.58,NW,312,6.0,19.0,86,0.00,,,0.01,40,WxPro DR1,2013-02-19 20:06:00,
2013-02-19 15:11:00,35.7,32.0,29.59,West,260,15.0,21.0,86,0.00,,,0.01,39,WxPro DR1,2013-02-19 20:11:00,
2013-02-19 15:16:00,35.0,31.3,29.59,West,259,5.0,21.0,86,0.00,,,0.01,32,WxPro DR1,2013-02-19 20:16:00,
2013-02-19 15:21:00,34.6,30.9,29.59,SW,232,7.0,18.0,86,0.00,,,0.01,30,WxPro DR1,2013-02-19 20:21:00,
2013-02-19 15:26:00,34.3,30.6,29.60,WNW,298,7.0,16.0,86,0.00,,,0.01,26,WxPro DR1,2013-02-19 20:26:00,
2013-02-19 15:31:00,34.0,30.3,29.61,West,260,3.0,18.0,86,0.00,,,0.01,23,WxPro DR1,2013-02-19 20:31:00,
2013-02-19 15:36:00,33.8,30.0,29.61,WSW,238,2.0,18.0,86,0.00,,,0.01,28,WxPro DR1,2013-02-19 20:36:00,
2013-02-19 15:41:00,33.7,30.0,29.61,West,269,0.0,17.0,86,0.00,,,0.01,18,WxPro DR1,2013-02-19 20:41:00,
2013-02-19 15:46:00,33.7,30.0,29.61,WNW,284,3.0,12.0,86,0.00,,,0.01,28,WxPro DR1,2013-02-19 20:46:00,
2013-02-19 15:51:00,33.5,29.8,29.62,WSW,249,5.0,20.0,86,0.00,,,0.01,28,WxPro DR1,2013-02-19 20:51:00,
2013-02-19 15:56:00,33.3,29.3,29.62,NW,319,9.0,20.0,85,0.00,,,0.01,21,WxPro DR1,2013-02-19 20:56:00,
2013-02-19 16:01:00,33.1,29.1,29.63,West,280,8.0,23.0,85,0.00,,,0.01,25,WxPro DR1,2013-02-19 21:01:00,
2013-02-19 16:06:00,32.6,28.6,29.63,WSW,243,4.0,23.0,85,0.00,,,0.01,21,WxPro DR1,2013-02-19 21:06:00,
2013-02-19 16:11:00,32.2,28.2,29.64,West,269,6.0,21.0,85,0.00,,,0.01,19,WxPro DR1,2013-02-19 21:11:00,
2013-02-19 16:16:00,32.1,28.1,29.64,WSW,248,10.0,23.0,85,0.00,,,0.01,26,WxPro DR1,2013-02-19 21:16:00,
2013-02-19 16:21:00,32.0,27.7,29.64,WSW,238,5.0,23.0,84,0.00,,,0.01,30,WxPro DR1,2013-02-19 21:21:00,
2013-02-19 16:26:00,32.0,27.8,29.64,West,264,2.0,18.0,84,0.00,,,0.01,23,WxPro DR1,2013-02-19 21:26:00,
2013-02-19 16:31:00,32.1,27.8,29.64,West,269,0.0,19.0,84,0.00,,,0.01,18,WxPro DR1,2013-02-19 21:31:00,
2013-02-19 16:36:00,32.1,27.8,29.65,West,268,9.0,19.0,84,0.00,,,0.01,16,WxPro DR1,2013-02-19 21:36:00,
2013-02-19 16:41:00,32.0,28.6,29.65,WSW,250,13.0,20.0,87,0.00,,,0.01,25,WxPro DR1,2013-02-19 21:41:00,
2013-02-19 16:46:00,31.8,27.0,29.66,WSW,249,9.0,21.0,82,0.00,,,0.01,16,WxPro DR1,2013-02-19 21:46:00,
2013-02-19 16:51:00,31.7,26.8,29.66,SW,234,4.0,21.0,82,0.00,,,0.01,14,WxPro DR1,2013-02-19 21:51:00,
2013-02-19 16:56:00,31.6,26.4,29.66,WSW,245,9.0,19.0,81,0.00,,,0.01,9,WxPro DR1,2013-02-19 21:56:00,
2013-02-19 17:01:00,31.5,26.1,29.66,WSW,244,4.0,16.0,80,0.00,,,0.01,7,WxPro DR1,2013-02-19 22:01:00,
2013-02-19 17:06:00,31.5,26.0,29.66,WSW,241,0.0,13.0,80,0.00,,,0.01,9,WxPro DR1,2013-02-19 22:06:00,
2013-02-19 17:11:00,31.5,26.0,29.66,WNW,288,3.0,18.0,80,0.00,,,0.01,7,WxPro DR1,2013-02-19 22:11:00,
2013-02-19 17:16:00,31.5,26.0,29.67,SSW,206,12.0,18.0,80,0.00,,,0.01,7,WxPro DR1,2013-02-19 22:16:00,
2013-02-19 17:21:00,31.5,25.9,29.67,WSW,253,0.0,12.0,80,0.00,,,0.01,5,WxPro DR1,2013-02-19 22:21:00,
2013-02-19 17:26:00,31.5,25.5,29.67,NW,314,5.0,19.0,78,0.00,,,0.01,5,WxPro DR1,2013-02-19 22:26:00,
2013-02-19 17:31:00,31.5,25.5,29.67,WNW,288,4.0,19.0,78,0.00,,,0.01,5,WxPro DR1,2013-02-19 22:31:00,
2013-02-19 17:36:00,31.5,25.5,29.67,SW,218,3.0,13.0,78,0.00,,,0.01,0,WxPro DR1,2013-02-19 22:36:00,
2013-02-19 17:41:00,31.5,25.5,29.67,SW,234,3.0,13.0,78,0.00,,,0.01,0,WxPro DR1,2013-02-19 22:41:00,
2013-02-19 17:46:00,31.6,25.5,29.67,SW,225,6.0,15.0,78,0.00,,,0.01,0,WxPro DR1,2013-02-19 22:46:00,
2013-02-19 17:51:00,31.6,25.2,29.67,WSW,238,3.0,15.0,77,0.00,,,0.01,0,WxPro DR1,2013-02-19 22:51:00,
2013-02-19 17:56:00,31.6,25.2,29.67,WSW,250,1.0,15.0,77,0.00,,,0.01,0,WxPro DR1,2013-02-19 22:56:00,
2013-02-19 18:01:00,31.7,25.3,29.68,SSE,168,1.0,15.0,77,0.00,,,0.01,0,WxPro DR1,2013-02-19 23:01:00,
2013-02-19 18:06:00,31.7,25.3,29.68,WNW,286,1.0,14.0,77,0.00,,,0.01,0,WxPro DR1,2013-02-19 23:06:00,
2013-02-19 18:11:00,31.7,25.0,29.68,WSW,245,3.0,19.0,76,0.00,,,0.01,0,WxPro DR1,2013-02-19 23:11:00,
2013-02-19 18:16:00,31.8,25.2,29.68,WSW,240,5.0,19.0,76,0.00,,,0.01,0,WxPro DR1,2013-02-19 23:16:00,
2013-02-19 18:21:00,31.9,25.2,29.69,WSW,257,5.0,14.0,76,0.00,,,0.01,0,WxPro DR1,2013-02-19 23:21:00,
2013-02-19 18:26:00,31.9,25.2,29.69,WSW,242,2.0,14.0,76,0.00,,,0.01,0,WxPro DR1,2013-02-19 23:26:00,
2013-02-19 18:31:00,31.9,25.2,29.69,WSW,242,2.0,16.0,76,0.00,,,0.01,0,WxPro DR1,2013-02-19 23:31:00,
2013-02-19 18:36:00,31.9,25.2,29.69,West,279,4.0,16.0,76,0.00,,,0.01,0,WxPro DR1,2013-02-19 23:36:00,
2013-02-19 18:41:00,31.9,25.2,29.69,SW,220,5.0,14.0,76,0.00,,,0.01,0,WxPro DR1,2013-02-19 23:41:00,
2013-02-19 18:46:00,31.8,25.4,29.69,WSW,249,4.0,14.0,77,0.00,,,0.01,0,WxPro DR1,2013-02-19 23:46:00,
2013-02-19 18:51:00,31.7,25.6,29.70,WSW,244,2.0,14.0,78,0.00,,,0.01,0,WxPro DR1,2013-02-19 23:51:00,
2013-02-19 18:56:00,31.6,25.6,29.70,WSW,248,4.0,14.0,78,0.00,,,0.01,0,WxPro DR1,2013-02-19 23:56:00,
2013-02-19 19:01:00,31.5,25.4,29.70,WSW,257,4.0,23.0,78,0.00,,,0.01,0,WxPro DR1,2013-02-20 00:01:00,
2013-02-19 19:06:00,31.4,25.6,29.70,West,261,1.0,23.0,79,0.00,,,0.01,0,WxPro DR1,2013-02-20 00:06:00,
2013-02-19 19:11:00,31.2,26.0,29.70,SSW,201,6.0,16.0,81,0.00,,,0.01,0,WxPro DR1,2013-02-20 00:11:00,
2013-02-19 19:16:00,30.9,26.1,29.70,SSW,202,4.0,13.0,82,0.00,,,0.01,0,WxPro DR1,2013-02-20 00:16:00,
2013-02-19 19:21:00,30.7,26.1,29.70,WSW,244,4.0,21.0,83,0.00,,,0.01,0,WxPro DR1,2013-02-20 00:21:00,
2013-02-19 19:26:00,30.4,25.9,29.70,WSW,257,6.0,21.0,83,0.00,,,0.01,0,WxPro DR1,2013-02-20 00:26:00,
2013-02-19 19:31:00,30.3,25.6,29.71,NW,318,4.0,20.0,82,0.00,,,0.01,0,WxPro DR1,2013-02-20 00:31:00,
2013-02-19 19:36:00,30.3,25.3,29.71,West,273,9.0,17.0,82,0.00,,,0.01,0,WxPro DR1,2013-02-20 00:36:00,
2013-02-19 19:41:00,30.2,24.7,29.71,WSW,257,1.0,17.0,80,0.00,,,0.01,0,WxPro DR1,2013-02-20 00:41:00,
2013-02-19 19:46:00,30.2,24.2,29.71,West,268,17.0,20.0,78,0.00,,,0.01,0,WxPro DR1,2013-02-20 00:46:00,
2013-02-19 19:51:00,30.2,23.9,29.71,NW,318,14.0,20.0,77,0.00,,,0.01,0,WxPro DR1,2013-02-20 00:51:00,
2013-02-19 19:56:00,30.2,23.8,29.71,SW,234,3.0,19.0,77,0.00,,,0.01,0,WxPro DR1,2013-02-20 00:56:00,
2013-02-19 20:01:00,30.1,23.8,29.72,West,273,4.0,19.0,77,0.00,,,0.01,0,WxPro DR1,2013-02-20 01:01:00,
2013-02-19 20:06:00,30.0,24.0,29.71,NW,304,8.0,23.0,78,0.00,,,0.01,0,WxPro DR1,2013-02-20 01:06:00,
2013-02-19 20:11:00,29.9,23.9,29.72,WSW,244,6.0,23.0,78,0.00,,,0.01,0,WxPro DR1,2013-02-20 01:11:00,
2013-02-19 20:16:00,29.8,24.1,29.72,SSW,213,3.0,17.0,79,0.00,,,0.01,0,WxPro DR1,2013-02-20 01:16:00,
2013-02-19 20:21:00,29.6,23.6,29.72,SW,228,5.0,29.0,78,0.00,,,0.01,0,WxPro DR1,2013-02-20 01:21:00,
2013-02-19 20:26:00,29.5,23.2,29.72,SW,233,4.0,29.0,77,0.00,,,0.01,0,WxPro DR1,2013-02-20 01:26:00,
2013-02-19 20:31:00,29.4,23.1,29.72,WSW,245,10.0,17.0,77,0.00,,,0.01,0,WxPro DR1,2013-02-20 01:31:00,
2013-02-19 20:36:00,29.3,23.0,29.72,WSW,239,4.0,21.0,77,0.00,,,0.01,0,WxPro DR1,2013-02-20 01:36:00,
2013-02-19 20:41:00,29.2,22.9,29.73,WSW,242,3.0,21.0,77,0.00,,,0.01,0,WxPro DR1,2013-02-20 01:41:00,
2013-02-19 20:46:00,29.0,23.0,29.73,WSW,254,3.0,15.0,78,0.00,,,0.01,0,WxPro DR1,2013-02-20 01:46:00,
2013-02-19 20:51:00,28.8,23.5,29.73,WNW,288,5.0,15.0,80,0.00,,,0.01,0,WxPro DR1,2013-02-20 01:51:00,
2013-02-19 20:56:00,28.5,23.1,29.73,WSW,250,6.0,15.0,80,0.00,,,0.01,0,WxPro DR1,2013-02-20 01:56:00,
2013-02-19 21:01:00,28.3,23.0,29.74,WSW,256,5.0,20.0,80,0.00,,,0.01,0,WxPro DR1,2013-02-20 02:01:00,
2013-02-19 21:06:00,28.2,22.6,29.74,SSW,211,15.0,20.0,79,0.00,,,0.01,0,WxPro DR1,2013-02-20 02:06:00,
2013-02-19 21:11:00,28.2,21.9,29.74,SW,215,3.0,20.0,77,0.00,,,0.01,0,WxPro DR1,2013-02-20 02:11:00,
2013-02-19 21:16:00,28.2,22.1,29.74,SW,225,6.0,20.0,78,0.00,,,0.01,0,WxPro DR1,2013-02-20 02:16:00,
2013-02-19 21:21:00,28.1,21.8,29.74,WNW,282,5.0,15.0,77,0.00,,,0.01,0,WxPro DR1,2013-02-20 02:21:00,
2013-02-19 21:26:00,28.0,21.8,29.74,West,271,7.0,18.0,77,0.00,,,0.01,0,WxPro DR1,2013-02-20 02:26:00,
2013-02-19 21:31:00,28.0,21.7,29.74,SSE,163,6.0,18.0,77,0.00,,,0.01,0,WxPro DR1,2013-02-20 02:31:00,
2013-02-19 21:36:00,27.9,21.6,29.74,SSW,203,1.0,25.0,77,0.00,,,0.01,0,WxPro DR1,2013-02-20 02:36:00,
2013-02-19 21:41:00,27.9,21.8,29.74,WSW,244,2.0,25.0,78,0.00,,,0.01,0,WxPro DR1,2013-02-20 02:41:00,
2013-02-19 21:46:00,27.7,22.0,29.74,South,179,3.0,19.0,79,0.00,,,0.01,0,WxPro DR1,2013-02-20 02:46:00,
2013-02-19 21:51:00,27.5,22.1,29.74,SW,230,2.0,19.0,80,0.00,,,0.01,0,WxPro DR1,2013-02-20 02:51:00,
2013-02-19 21:56:00,27.4,22.4,29.74,WSW,258,2.0,15.0,81,0.00,,,0.01,0,WxPro DR1,2013-02-20 02:56:00,
2013-02-19 22:01:00,27.4,22.3,29.74,WSW,240,2.0,15.0,81,0.00,,,0.01,0,WxPro DR1,2013-02-20 03:01:00,
2013-02-19 22:06:00,27.1,22.1,29.74,SW,232,1.0,19.0,81,0.00,,,0.01,0,WxPro DR1,2013-02-20 03:06:00,
2013-02-19 22:11:00,27.0,22.0,29.74,South,178,3.0,19.0,81,0.00,,,0.01,0,WxPro DR1,2013-02-20 03:11:00,
2013-02-19 22:16:00,27.0,22.2,29.74,SW,225,3.0,16.0,82,0.00,,,0.01,0,WxPro DR1,2013-02-20 03:16:00,
2013-02-19 22:21:00,26.9,21.9,29.74,SW,223,2.0,14.0,81,0.00,,,0.01,0,WxPro DR1,2013-02-20 03:21:00,
2013-02-19 22:26:00,27.0,22.0,29.75,SW,215,10.0,19.0,81,0.00,,,0.01,0,WxPro DR1,2013-02-20 03:26:00,
2013-02-19 22:31:00,27.0,21.7,29.75,WSW,242,2.0,19.0,80,0.00,,,0.01,0,WxPro DR1,2013-02-20 03:31:00,
2013-02-19 22:36:00,27.1,21.8,29.75,SW,218,8.0,12.0,80,0.00,,,0.01,0,WxPro DR1,2013-02-20 03:36:00,
2013-02-19 22:41:00,27.1,21.2,29.74,WSW,253,10.0,14.0,78,0.00,,,0.01,0,WxPro DR1,2013-02-20 03:41:00,
2013-02-19 22:46:00,27.2,21.0,29.74,West,267,6.0,16.0,77,0.00,,,0.01,0,WxPro DR1,2013-02-20 03:46:00,
2013-02-19 22:51:00,27.2,20.3,29.74,SW,228,3.0,21.0,75,0.00,,,0.01,0,WxPro DR1,2013-02-20 03:51:00,
2013-02-19 22:56:00,27.2,20.3,29.74,SW,232,9.0,21.0,75,0.00,,,0.01,0,WxPro DR1,2013-02-20 03:56:00,
2013-02-19 23:01:00,27.2,20.3,29.74,WSW,245,1.0,15.0,75,0.00,,,0.01,0,WxPro DR1,2013-02-20 04:01:00,
2013-02-19 23:06:00,27.1,20.2,29.74,SSW,213,3.0,14.0,75,0.00,,,0.01,0,WxPro DR1,2013-02-20 04:06:00,
2013-02-19 23:11:00,27.0,20.2,29.74,WSW,257,11.0,14.0,75,0.00,,,0.01,0,WxPro DR1,2013-02-20 04:11:00,
2013-02-19 23:16:00,27.0,19.8,29.74,WSW,257,14.0,17.0,74,0.00,,,0.01,0,WxPro DR1,2013-02-20 04:16:00,
2013-02-19 23:21:00,27.0,19.5,29.74,West,268,6.0,17.0,73,0.00,,,0.01,0,WxPro DR1,2013-02-20 04:21:00,
2013-02-19 23:26:00,27.0,19.5,29.74,SW,236,1.0,16.0,73,0.00,,,0.01,0,WxPro DR1,2013-02-20 04:26:00,
2013-02-19 23:31:00,27.0,19.8,29.74,WSW,239,9.0,16.0,74,0.00,,,0.01,0,WxPro DR1,2013-02-20 04:31:00,
2013-02-19 23:36:00,26.9,19.9,29.74,WSW,248,1.0,18.0,74,0.00,,,0.01,0,WxPro DR1,2013-02-20 04:36:00,
2013-02-19 23:41:00,26.9,20.0,29.74,WSW,257,5.0,18.0,75,0.00,,,0.01,0,WxPro DR1,2013-02-20 04:41:00,
2013-02-19 23:46:00,26.8,20.3,29.74,West,276,12.0,13.0,76,0.00,,,0.01,0,WxPro DR1,2013-02-20 04:46:00,
2013-02-19 23:51:00,26.8,20.3,29.74,SW,226,5.0,19.0,76,0.00,,,0.01,0,WxPro DR1,2013-02-20 04:51:00,
2013-02-19 23:56:00,26.7,20.2,29.75,SSW,213,4.0,19.0,76,0.00,,,0.01,0,WxPro DR1,2013-02-20 04:56:00,